Fishers Hill, Virginia
Current Conditions -  °F | °C
As of 3:15 PM on Thursday 23 Oct 2014 (Local Time) from KFRR Reporting Station
Clear Clear  
Wind Chill: 61°   Ceiling: Unl
Heat Index: 61°   Visibility: 10mi
Dew Point: 43°   Wind: 13mph
Humidity: 52%   Direction: 290°WNW
Pressure: 29.92"   Gusts: 26mph
Location:  38.99°N, 78.4°W
Report Text: KFRR 231915Z AUTO 29011G23KT 10SM CLR 16/06 A2992 RMK AO1
Loading
Personal Weather Stations






























Interactive Weather Map
Tropical Storm Tracking
New forecast layout! Learn more

10-Day Weather Forecast

Advertisements
Track Severe Weather on mobile